Woodland Park, Colorado
Current Conditions -  °F | °C
As of 4:17 AM on Sunday 23 Nov 2014 (Local Time) from KAFF Reporting Station
Light Rain Light Rain  
Wind Chill: 28°   Ceiling: 1500
Heat Index: 36°   Visibility: 10mi
Dew Point: 28°   Wind: 10mph
Humidity: 75%   Direction: 330°NNW
Pressure: 29.66"   Gusts: NA
Location:  38.99°N, 105.05°W
Report Text: KAFF 231117Z AUTO 33009KT 10SM -RA BKN015 BKN029 02/M02 A2966 RMK AO2 UPE1059RAB1059E1105 CIG 015V029 BKN015 V SCT
Loading
Personal Weather Stations






























Interactive Weather Map New forecast layout! Learn more

10-Day Weather Forecast

Advertisements
Track Severe Weather on mobile